Time;durP1;ratioP1;P1;durP2;ratioP2;P2;SDS_P1;SDS_P2;PMS_P1;PMS_P2;Temp;Humidity;BMP_temperature;BMP_pressure;BME280_temperature;BME280_humidity;BME280_pressure;Samples;Min_cycle;Max_cycle;Signal;HPM_P1;HPM_P2
2021/05/06 00:07:04;;;;;;;9.80;2.70;;;5.10;99.90;;;;;;5132996;27;20549;-57
2021/05/06 00:10:09;;;;;;;8.90;1.57;;;5.10;99.90;;;;;;5151867;27;20226;-48
2021/05/06 00:32:06;;;;;;;12.50;2.10;;;5.10;99.90;;;;;;5154668;27;20191;-47
2021/05/06 00:34:32;;;;;;;5.83;1.80;;;5.10;99.90;;;;;;5156397;27;20244;-49
2021/05/06 00:36:58;;;;;;;10.57;1.60;;;5.10;99.90;;;;;;5135321;27;20287;-55
2021/05/06 00:39:28;;;;;;;4.77;1.60;;;5.10;99.90;;;;;;5146523;27;20188;-46
2021/05/06 00:42:15;;;;;;;5.40;1.80;;;5.10;99.90;;;;;;5141451;27;20192;-47
2021/05/06 00:58:57;;;;;;;8.00;1.90;;;4.90;99.90;;;;;;5115622;27;20192;-46
2021/05/06 01:04:20;;;;;;;8.77;1.77;;;4.90;99.90;;;;;;5132693;27;20273;-53
2021/05/06 01:06:56;;;;;;;4.40;1.87;;;4.90;99.90;;;;;;5132363;27;20206;-51
2021/05/06 01:09:26;;;;;;;10.70;1.90;;;4.90;99.90;;;;;;5144317;27;20196;-52
2021/05/06 01:11:56;;;;;;;7.63;1.43;;;4.80;99.90;;;;;;5139669;27;20200;-53
2021/05/06 01:14:22;;;;;;;13.63;1.80;;;4.80;99.90;;;;;;5135248;27;20247;-47
2021/05/06 01:16:49;;;;;;;7.53;1.50;;;4.80;99.90;;;;;;5143032;27;20191;-47
2021/05/06 01:19:15;;;;;;;6.57;1.77;;;4.80;99.90;;;;;;5126776;27;20188;-55
2021/05/06 01:21:42;;;;;;;7.33;1.30;;;4.80;99.90;;;;;;5133618;27;20203;-52
2021/05/06 01:24:08;;;;;;;7.47;1.83;;;4.80;99.90;;;;;;5120339;27;20234;-55
2021/05/06 01:26:38;;;;;;;9.13;1.60;;;4.70;99.90;;;;;;5129170;27;20192;-47
2021/05/06 01:29:09;;;;;;;9.30;1.87;;;4.70;99.90;;;;;;5124296;27;20199;-56
2021/05/06 01:31:39;;;;;;;8.40;1.77;;;4.70;99.90;;;;;;5125782;27;20245;-47
2021/05/06 01:34:10;;;;;;;4.70;1.30;;;4.60;99.90;;;;;;5111389;27;20592;-55
2021/05/06 01:36:40;;;;;;;6.83;1.97;;;4.60;99.90;;;;;;5131460;27;20883;-49
2021/05/06 01:39:39;;;;;;;7.33;2.43;;;4.60;99.90;;;;;;5123494;27;20204;-57
2021/05/06 01:42:09;;;;;;;8.57;1.70;;;4.60;99.90;;;;;;5103981;28;20189;-55
2021/05/06 01:45:01;;;;;;;4.90;0.93;;;4.50;99.90;;;;;;5131205;27;20248;-47
2021/05/06 01:47:30;;;;;;;5.77;1.43;;;4.50;99.90;;;;;;5123625;27;20180;-48
2021/05/06 01:50:19;;;;;;;9.80;2.67;;;4.40;99.90;;;;;;5118734;27;20224;-56
2021/05/06 02:01:01;;;;;;;7.17;1.33;;;4.50;99.90;;;;;;5104833;28;20197;-56
2021/05/06 02:03:28;;;;;;;6.90;1.77;;;4.40;99.90;;;;;;5102825;28;20213;-48
2021/05/06 02:05:56;;;;;;;6.60;1.67;;;4.50;99.90;;;;;;5100584;27;20761;-55
2021/05/06 02:08:22;;;;;;;10.07;2.13;;;4.50;99.90;;;;;;5100087;27;22147;-48
2021/05/06 02:10:56;;;;;;;9.70;2.30;;;4.50;99.90;;;;;;5135173;27;20195;-50
2021/05/06 02:13:36;;;;;;;5.53;1.67;;;4.60;99.90;;;;;;5123872;27;20236;-49
2021/05/06 02:16:14;;;;;;;9.27;1.80;;;4.60;99.90;;;;;;5123914;27;20254;-55
2021/05/06 02:18:41;;;;;;;4.77;1.40;;;4.60;99.90;;;;;;5125544;27;20228;-50
2021/05/06 02:21:10;;;;;;;8.70;1.67;;;4.60;99.90;;;;;;5132604;27;20200;-56
2021/05/06 02:23:37;;;;;;;7.37;1.47;;;4.60;99.90;;;;;;5145390;27;20224;-47
2021/05/06 02:26:04;;;;;;;12.13;2.07;;;4.60;99.90;;;;;;5121728;27;20230;-55
2021/05/06 02:28:30;;;;;;;5.67;1.47;;;4.50;99.90;;;;;;5126657;27;20188;-50
2021/05/06 02:30:56;;;;;;;6.57;1.77;;;4.50;99.90;;;;;;5125125;27;20213;-54
2021/05/06 02:33:22;;;;;;;9.40;2.30;;;4.50;99.90;;;;;;5121739;27;20303;-48
2021/05/06 02:35:48;;;;;;;5.53;2.40;;;4.50;99.90;;;;;;5119402;27;20196;-51
2021/05/06 02:38:14;;;;;;;14.57;3.10;;;4.40;99.90;;;;;;5110137;27;20196;-51
2021/05/06 02:40:41;;;;;;;5.00;1.83;;;4.40;99.90;;;;;;5099681;27;20209;-54
2021/05/06 02:43:08;;;;;;;6.30;1.50;;;4.40;99.90;;;;;;5124638;27;20213;-48
2021/05/06 02:45:34;;;;;;;4.20;1.17;;;4.40;99.90;;;;;;5123980;27;20707;-55
2021/05/06 02:48:00;;;;;;;16.10;2.20;;;4.40;99.90;;;;;;5102664;27;20266;-56
2021/05/06 02:50:27;;;;;;;10.80;2.37;;;4.50;99.90;;;;;;5104878;27;20194;-49
2021/05/06 02:52:59;;;;;;;11.43;1.63;;;4.50;99.90;;;;;;5116336;27;20230;-56
2021/05/06 02:55:32;;;;;;;7.20;1.60;;;4.50;99.90;;;;;;5108781;27;21769;-49
2021/05/06 02:58:03;;;;;;;7.80;1.50;;;4.50;99.90;;;;;;5125123;27;20661;-56
2021/05/06 03:03:14;;;;;;;10.97;1.50;;;4.50;99.90;;;;;;5109722;27;20255;-50
2021/05/06 03:05:41;;;;;;;8.93;1.50;;;4.50;99.90;;;;;;5108173;27;20213;-52
2021/05/06 03:08:11;;;;;;;7.70;1.93;;;4.50;99.90;;;;;;5115169;27;20283;-55
2021/05/06 03:10:55;;;;;;;11.00;2.13;;;4.40;99.90;;;;;;5111686;27;20208;-47
2021/05/06 03:24:18;;;;;;;4.10;1.70;;;4.30;99.90;;;;;;5102675;28;20217;-50
2021/05/06 03:26:45;;;;;;;8.03;1.83;;;4.30;99.90;;;;;;5104008;27;20204;-55
2021/05/06 03:29:13;;;;;;;6.17;2.33;;;4.30;99.90;;;;;;5131000;27;20192;-52
2021/05/06 03:31:56;;;;;;;6.47;1.80;;;4.30;99.90;;;;;;5122141;27;20195;-56
2021/05/06 03:42:43;;;;;;;9.27;2.13;;;4.20;99.90;;;;;;5124898;27;20219;-53
2021/05/06 03:45:28;;;;;;;11.87;1.40;;;4.20;99.90;;;;;;5134737;27;20230;-46
2021/05/06 03:48:30;;;;;;;10.53;1.70;;;4.20;99.90;;;;;;5140889;27;20270;-47
2021/05/06 04:13:20;;;;;;;6.57;1.73;;;4.10;99.90;;;;;;5077327;27;20219;-47
2021/05/06 04:18:33;;;;;;;9.63;1.90;;;4.10;99.90;;;;;;5124076;27;20192;-49
2021/05/06 04:26:35;;;;;;;6.17;1.53;;;4.20;99.90;;;;;;5144506;27;20310;-52
2021/05/06 04:37:08;;;;;;;6.90;1.63;;;4.30;99.90;;;;;;5131831;27;20213;-49
2021/05/06 04:39:44;;;;;;;6.87;1.80;;;4.30;99.90;;;;;;5122526;27;20286;-53
2021/05/06 04:53:33;;;;;;;3.30;1.20;;;4.40;99.90;;;;;;5121736;27;20219;-47
2021/05/06 04:56:06;;;;;;;7.47;1.50;;;4.40;99.90;;;;;;5119889;27;20359;-49
2021/05/06 05:04:07;;;;;;;2.10;1.10;;;4.50;99.90;;;;;;5124461;27;20283;-47
2021/05/06 05:06:36;;;;;;;11.77;2.93;;;4.50;99.90;;;;;;5126568;27;20299;-55
2021/05/06 05:09:16;;;;;;;10.33;2.00;;;4.60;99.90;;;;;;5107994;27;20205;-47
2021/05/06 05:11:49;;;;;;;5.43;1.60;;;4.60;99.90;;;;;;5100498;27;20232;-55
2021/05/06 05:19:59;;;;;;;8.63;1.77;;;4.70;99.90;;;;;;5123324;27;20177;-54
2021/05/06 05:25:18;;;;;;;5.67;1.77;;;4.90;99.90;;;;;;5099238;27;20224;-48
2021/05/06 05:27:44;;;;;;;3.17;1.10;;;4.90;99.90;;;;;;5103453;27;20193;-55
2021/05/06 05:30:11;;;;;;;4.07;0.97;;;5.00;99.90;;;;;;5114205;27;20212;-48
2021/05/06 05:32:37;;;;;;;5.00;1.60;;;5.00;99.90;;;;;;5132032;27;20265;-54
2021/05/06 05:35:08;;;;;;;6.10;1.83;;;5.10;99.90;;;;;;5123848;27;20809;-46
2021/05/06 05:37:37;;;;;;;6.43;1.50;;;5.10;99.90;;;;;;5125862;27;20220;-54
2021/05/06 05:43:05;;;;;;;6.83;2.00;;;5.20;99.90;;;;;;5115189;27;20246;-54
2021/05/06 05:46:20;;;;;;;4.40;1.63;;;5.20;99.90;;;;;;5124120;27;20215;-55
2021/05/06 05:54:36;;;;;;;2.70;1.40;;;5.20;99.90;;;;;;5116882;27;20225;-47
2021/05/06 05:57:02;;;;;;;6.47;1.60;;;5.30;99.90;;;;;;5099215;27;20203;-48
2021/05/06 05:59:29;;;;;;;8.50;1.47;;;5.30;99.90;;;;;;5105459;28;20189;-47
2021/05/06 06:01:55;;;;;;;6.87;1.47;;;5.40;99.90;;;;;;5120437;27;20801;-48
2021/05/06 06:04:21;;;;;;;5.93;2.00;;;5.50;99.90;;;;;;5130969;27;20201;-50
2021/05/06 06:06:47;;;;;;;8.20;1.50;;;5.50;99.90;;;;;;5122810;27;20189;-55
2021/05/06 06:09:13;;;;;;;4.30;1.47;;;5.50;99.90;;;;;;5125717;27;20197;-50
2021/05/06 06:11:39;;;;;;;7.87;1.47;;;5.60;99.90;;;;;;5103008;27;20201;-56
2021/05/06 06:14:07;;;;;;;6.60;1.33;;;5.70;99.90;;;;;;5110919;27;20280;-48
2021/05/06 06:16:37;;;;;;;5.63;1.53;;;5.80;99.90;;;;;;5123507;27;20212;-53
2021/05/06 06:19:04;;;;;;;4.37;1.20;;;5.90;99.90;;;;;;5109835;27;20698;-48
2021/05/06 06:21:33;;;;;;;10.60;1.50;;;6.00;99.90;;;;;;5109450;27;20677;-54
2021/05/06 06:24:00;;;;;;;5.43;1.23;;;6.00;99.90;;;;;;5123364;27;20205;-49
2021/05/06 06:26:26;;;;;;;11.60;2.50;;;6.10;99.90;;;;;;5100611;27;20678;-54
2021/05/06 06:28:55;;;;;;;3.27;1.40;;;6.10;99.90;;;;;;5104802;27;20256;-49
2021/05/06 06:31:25;;;;;;;5.60;1.80;;;6.10;99.90;;;;;;5112725;27;20200;-48
2021/05/06 06:33:52;;;;;;;5.73;1.60;;;6.10;99.90;;;;;;5132602;27;20215;-48
2021/05/06 06:36:18;;;;;;;5.93;1.83;;;6.20;99.90;;;;;;5130154;27;20221;-49
2021/05/06 06:38:45;;;;;;;9.93;1.77;;;6.20;99.90;;;;;;5100796;28;20904;-47
2021/05/06 06:41:12;;;;;;;5.03;1.20;;;6.30;99.90;;;;;;5115134;27;20196;-49
2021/05/06 06:43:40;;;;;;;7.57;1.80;;;6.40;99.90;;;;;;5111535;27;20251;-55
2021/05/06 06:46:06;;;;;;;5.07;1.37;;;6.40;99.90;;;;;;5122537;27;20226;-46
2021/05/06 06:48:33;;;;;;;7.83;2.00;;;6.40;99.90;;;;;;5121746;27;20267;-55
2021/05/06 06:51:00;;;;;;;7.77;1.70;;;6.50;99.90;;;;;;5123091;27;20854;-52
2021/05/06 06:53:27;;;;;;;10.80;1.37;;;6.60;99.90;;;;;;5123881;27;20213;-53
2021/05/06 06:55:54;;;;;;;4.60;1.43;;;6.60;99.90;;;;;;5120546;27;20200;-49
2021/05/06 06:58:20;;;;;;;3.23;1.27;;;6.70;99.90;;;;;;5105139;27;20211;-50
2021/05/06 07:00:47;;;;;;;3.07;1.37;;;6.90;99.90;;;;;;5095489;27;20197;-49
2021/05/06 07:03:14;;;;;;;9.27;1.40;;;7.00;99.90;;;;;;5101142;27;20609;-48
2021/05/06 07:05:41;;;;;;;7.53;1.63;;;7.00;99.90;;;;;;5128964;27;21082;-48
2021/05/06 07:08:15;;;;;;;9.67;1.70;;;6.90;99.90;;;;;;5124885;27;20640;-48
2021/05/06 07:10:42;;;;;;;10.13;1.63;;;7.00;99.90;;;;;;5119819;27;20854;-52
2021/05/06 07:13:09;;;;;;;4.70;1.53;;;7.00;99.90;;;;;;5107513;27;20912;-50
2021/05/06 07:15:35;;;;;;;7.47;1.17;;;7.00;99.90;;;;;;5103596;27;20199;-51
2021/05/06 07:18:01;;;;;;;4.07;1.53;;;7.10;99.90;;;;;;5124053;27;20204;-50
2021/05/06 07:20:28;;;;;;;6.23;1.30;;;7.20;99.90;;;;;;5117160;27;20214;-56
2021/05/06 07:22:54;;;;;;;8.33;1.57;;;7.20;99.90;;;;;;5123831;27;20212;-52
2021/05/06 07:25:21;;;;;;;7.43;1.73;;;7.30;99.90;;;;;;5118535;27;20208;-56
2021/05/06 07:27:48;;;;;;;3.43;1.37;;;7.40;99.90;;;;;;5121769;27;20293;-48
2021/05/06 07:30:15;;;;;;;5.00;1.20;;;7.40;99.90;;;;;;5105867;27;20202;-56
2021/05/06 07:32:41;;;;;;;5.93;1.37;;;7.50;99.90;;;;;;5096505;27;20220;-54
2021/05/06 07:35:09;;;;;;;9.77;1.70;;;7.50;99.90;;;;;;5117876;27;20744;-56
2021/05/06 07:37:35;;;;;;;4.13;1.47;;;7.60;99.90;;;;;;5119850;27;20193;-55
2021/05/06 07:40:01;;;;;;;7.03;1.40;;;7.60;99.90;;;;;;5127566;27;20192;-55
2021/05/06 07:42:28;;;;;;;4.07;1.57;;;7.60;99.90;;;;;;5118982;27;20204;-52
2021/05/06 07:44:54;;;;;;;6.97;1.87;;;7.70;99.90;;;;;;5125205;27;20212;-53
2021/05/06 07:47:20;;;;;;;8.70;2.03;;;7.80;99.90;;;;;;5126335;27;20199;-58
2021/05/06 07:49:49;;;;;;;4.80;1.47;;;8.00;99.90;;;;;;5141979;27;20243;-51
2021/05/06 07:52:16;;;;;;;8.20;1.67;;;8.00;99.90;;;;;;5122262;27;20232;-58
2021/05/06 07:54:42;;;;;;;6.73;1.63;;;8.20;99.90;;;;;;5127502;27;20932;-52
2021/05/06 07:57:09;;;;;;;5.30;1.53;;;8.20;99.90;;;;;;5123738;27;20303;-57
2021/05/06 07:59:36;;;;;;;5.33;1.47;;;8.10;99.90;;;;;;5120102;27;20188;-52
2021/05/06 08:02:03;;;;;;;3.00;1.13;;;8.10;99.90;;;;;;5124115;27;20229;-56
2021/05/06 08:04:29;;;;;;;8.63;2.00;;;7.90;99.90;;;;;;5131231;27;20203;-53
2021/05/06 08:06:55;;;;;;;7.07;1.23;;;7.90;99.90;;;;;;5128971;27;20718;-54
2021/05/06 08:09:22;;;;;;;5.57;1.53;;;8.10;99.90;;;;;;5126249;27;20210;-56
2021/05/06 08:11:50;;;;;;;3.47;1.57;;;8.20;99.90;;;;;;5143791;27;20666;-54
2021/05/06 08:14:17;;;;;;;6.97;1.63;;;8.30;99.90;;;;;;5142384;27;20723;-56
2021/05/06 08:16:44;;;;;;;6.97;1.50;;;8.30;99.90;;;;;;5142412;27;20184;-53
2021/05/06 08:19:10;;;;;;;5.63;1.47;;;8.30;99.90;;;;;;5134403;27;20657;-57
2021/05/06 08:21:36;;;;;;;6.87;1.60;;;8.30;99.90;;;;;;5125791;27;20200;-55
2021/05/06 08:24:03;;;;;;;4.23;1.07;;;8.40;99.90;;;;;;5135591;27;20266;-49
2021/05/06 08:26:31;;;;;;;7.90;1.87;;;8.50;99.90;;;;;;5137178;27;20466;-50
2021/05/06 08:28:58;;;;;;;7.67;1.10;;;8.50;99.90;;;;;;5129945;27;20870;-53
2021/05/06 08:31:24;;;;;;;7.60;1.63;;;8.70;99.90;;;;;;5115524;27;20279;-50
2021/05/06 08:33:51;;;;;;;9.10;1.90;;;8.80;99.90;;;;;;5115679;27;20299;-53
2021/05/06 08:36:17;;;;;;;3.17;1.10;;;8.80;99.90;;;;;;5131300;27;20192;-54
2021/05/06 08:38:44;;;;;;;6.00;1.50;;;8.80;99.90;;;;;;5118844;27;20200;-56
2021/05/06 08:41:11;;;;;;;4.47;1.23;;;8.70;99.90;;;;;;5141076;27;20196;-52
2021/05/06 08:43:39;;;;;;;9.03;1.10;;;8.80;99.90;;;;;;5134835;27;20225;-56
2021/05/06 08:46:06;;;;;;;8.03;1.40;;;8.80;99.90;;;;;;5112973;27;20289;-53
2021/05/06 08:48:32;;;;;;;8.43;1.40;;;8.80;99.90;;;;;;5123472;27;20192;-52
2021/05/06 08:50:59;;;;;;;4.80;1.63;;;8.80;99.90;;;;;;5105457;27;20304;-53
2021/05/06 08:53:26;;;;;;;4.63;1.30;;;8.80;99.90;;;;;;5102941;27;20554;-58
2021/05/06 08:55:53;;;;;;;7.07;1.40;;;8.80;99.90;;;;;;5133066;27;20193;-52
2021/05/06 08:58:20;;;;;;;5.87;1.37;;;8.90;99.90;;;;;;5123307;27;20196;-55
2021/05/06 09:00:46;;;;;;;6.03;1.10;;;9.00;99.90;;;;;;5119552;27;20193;-50
2021/05/06 09:03:13;;;;;;;4.80;1.20;;;8.90;99.90;;;;;;5125923;27;20220;-57
2021/05/06 09:06:21;;;;;;;3.00;1.20;;;9.10;99.90;;;;;;5117216;27;20212;-53
2021/05/06 09:08:52;;;;;;;2.93;0.63;;;9.30;99.90;;;;;;5072498;27;20254;-56
2021/05/06 09:11:28;;;;;;;4.77;1.30;;;9.40;99.90;;;;;;5134047;27;20555;-55
2021/05/06 09:14:01;;;;;;;0.67;0.67;;;9.60;99.90;;;;;;5125158;27;20282;-50
2021/05/06 09:16:33;;;;;;;4.20;1.50;;;9.50;99.90;;;;;;5127509;27;20252;-57
2021/05/06 09:19:03;;;;;;;3.57;0.93;;;9.50;99.90;;;;;;5126294;27;20188;-51
2021/05/06 09:21:30;;;;;;;4.20;1.30;;;9.70;99.90;;;;;;5133555;27;20204;-57
2021/05/06 09:24:13;;;;;;;4.40;1.00;;;9.60;99.90;;;;;;5147597;27;20296;-51
2021/05/06 09:26:41;;;;;;;4.20;1.30;;;9.70;99.90;;;;;;5123583;27;20216;-53
2021/05/06 09:29:09;;;;;;;10.20;1.43;;;9.70;99.90;;;;;;5123221;27;20657;-49
2021/05/06 09:31:37;;;;;;;4.40;1.03;;;9.90;99.90;;;;;;5115928;27;20260;-54
2021/05/06 09:34:06;;;;;;;6.50;1.73;;;9.90;99.90;;;;;;5126376;27;20311;-50
2021/05/06 09:36:32;;;;;;;1.77;0.90;;;9.60;99.90;;;;;;5107244;27;21080;-52
2021/05/06 09:39:00;;;;;;;4.27;1.20;;;9.60;99.90;;;;;;5127784;27;20192;-50
2021/05/06 09:41:29;;;;;;;4.90;1.40;;;9.50;99.90;;;;;;5126435;27;20234;-59
2021/05/06 09:44:07;;;;;;;8.70;1.10;;;9.60;99.90;;;;;;5128304;27;20224;-52
2021/05/06 09:46:37;;;;;;;5.20;1.23;;;9.80;99.90;;;;;;5127582;27;20299;-53
2021/05/06 09:49:05;;;;;;;2.50;0.80;;;9.90;98.60;;;;;;5147273;27;20321;-51
2021/05/06 09:51:42;;;;;;;5.93;1.33;;;9.90;97.30;;;;;;5135240;27;20192;-54
2021/05/06 09:54:10;;;;;;;3.50;0.97;;;9.90;95.20;;;;;;5110940;27;20212;-50
2021/05/06 09:56:39;;;;;;;6.47;1.40;;;9.90;95.50;;;;;;5111016;27;20221;-54
2021/05/06 09:59:05;;;;;;;4.37;1.00;;;9.90;97.00;;;;;;5126263;27;20196;-53
2021/05/06 10:01:33;;;;;;;3.87;0.90;;;9.90;97.70;;;;;;5115342;27;20187;-56
2021/05/06 10:04:13;;;;;;;4.87;0.90;;;9.80;97.40;;;;;;5125888;27;20299;-51
2021/05/06 10:06:40;;;;;;;2.40;0.90;;;9.80;97.90;;;;;;5118080;27;20217;-52
2021/05/06 10:09:06;;;;;;;3.43;1.03;;;9.90;97.30;;;;;;5122289;27;20192;-51
2021/05/06 10:11:32;;;;;;;5.80;1.10;;;10.00;96.70;;;;;;5118867;27;20207;-55
2021/05/06 10:14:00;;;;;;;2.83;0.80;;;10.20;95.20;;;;;;5120233;27;20216;-58
2021/05/06 10:16:27;;;;;;;3.97;1.00;;;10.40;95.00;;;;;;5132586;27;20196;-52
2021/05/06 10:18:54;;;;;;;3.83;1.10;;;10.60;93.40;;;;;;5117534;27;20677;-56
2021/05/06 10:21:21;;;;;;;2.10;0.80;;;10.60;94.20;;;;;;5124504;27;20192;-49
2021/05/06 10:23:49;;;;;;;3.63;0.77;;;10.10;96.20;;;;;;5133386;27;20223;-57
2021/05/06 10:26:15;;;;;;;1.53;0.50;;;9.50;99.60;;;;;;5127469;27;20222;-49
2021/05/06 10:28:42;;;;;;;2.27;0.50;;;9.20;99.90;;;;;;5134464;27;20193;-55
2021/05/06 10:31:10;;;;;;;1.40;0.80;;;8.90;99.90;;;;;;5127177;27;20196;-52
2021/05/06 10:33:38;;;;;;;4.70;0.83;;;8.70;99.90;;;;;;5120260;27;20579;-50
2021/05/06 10:36:05;;;;;;;3.23;0.90;;;8.70;99.90;;;;;;5121532;27;20173;-55
2021/05/06 10:38:32;;;;;;;4.67;0.90;;;8.80;99.90;;;;;;5123233;27;20191;-51
2021/05/06 10:41:30;;;;;;;4.10;1.37;;;8.70;99.90;;;;;;5143143;27;20188;-58
2021/05/06 10:43:57;;;;;;;2.87;1.30;;;8.70;99.90;;;;;;5102968;27;20213;-57
2021/05/06 10:46:56;;;;;;;2.73;0.93;;;8.70;99.90;;;;;;5114123;27;20221;-50
2021/05/06 10:49:22;;;;;;;3.27;1.03;;;8.70;99.90;;;;;;5098011;27;20317;-56
2021/05/06 10:51:59;;;;;;;4.93;1.10;;;8.80;99.90;;;;;;5131314;27;20291;-57
2021/05/06 10:54:27;;;;;;;2.57;1.03;;;8.90;99.90;;;;;;5129348;27;20279;-56
2021/05/06 10:56:54;;;;;;;2.27;0.93;;;9.00;99.90;;;;;;5101405;28;20181;-57
2021/05/06 10:59:22;;;;;;;1.33;0.80;;;9.20;99.90;;;;;;5109434;27;20204;-56
2021/05/06 11:01:48;;;;;;;4.53;1.20;;;9.40;99.90;;;;;;5110157;27;20201;-58
2021/05/06 11:04:15;;;;;;;3.90;1.20;;;9.50;99.90;;;;;;5101482;27;20280;-50
2021/05/06 11:06:43;;;;;;;6.27;1.03;;;9.50;99.90;;;;;;5124390;27;20216;-57
2021/05/06 11:09:50;;;;;;;6.17;1.30;;;9.80;99.90;;;;;;5122187;27;20180;-57
2021/05/06 11:12:31;;;;;;;5.50;1.30;;;10.00;99.90;;;;;;5115831;27;20248;-51
2021/05/06 11:15:30;;;;;;;6.10;1.87;;;9.90;99.90;;;;;;5122444;27;20203;-56
2021/05/06 11:17:58;;;;;;;3.60;1.00;;;9.50;99.90;;;;;;5124426;27;20219;-57
2021/05/06 11:20:49;;;;;;;5.40;1.67;;;9.00;99.90;;;;;;5114776;27;20647;-50
2021/05/06 11:23:25;;;;;;;5.37;1.57;;;8.30;99.90;;;;;;5122430;27;20217;-53
2021/05/06 11:25:53;;;;;;;6.50;1.60;;;7.50;99.90;;;;;;5117162;27;20212;-55
2021/05/06 11:28:41;;;;;;;4.00;1.20;;;7.00;99.90;;;;;;5114285;27;20196;-54
2021/05/06 11:31:07;;;;;;;5.07;1.33;;;6.40;99.90;;;;;;5097640;27;20208;-51
2021/05/06 11:33:34;;;;;;;4.73;1.30;;;6.10;99.90;;;;;;5128653;27;20759;-48
2021/05/06 11:36:03;;;;;;;4.63;1.30;;;6.00;99.90;;;;;;5112048;27;20897;-52
2021/05/06 11:38:44;;;;;;;3.87;1.00;;;6.10;99.90;;;;;;5116876;27;20190;-52
2021/05/06 11:41:12;;;;;;;4.17;1.20;;;6.30;99.90;;;;;;5116602;27;20199;-54
2021/05/06 11:43:42;;;;;;;5.10;1.30;;;6.40;99.90;;;;;;5107915;27;20235;-58
2021/05/06 11:46:10;;;;;;;4.10;1.50;;;6.60;99.90;;;;;;5107428;27;20231;-55
2021/05/06 11:48:36;;;;;;;8.57;2.80;;;6.80;99.90;;;;;;5122767;27;20197;-56
2021/05/06 11:51:03;;;;;;;4.33;1.50;;;7.00;99.90;;;;;;5113501;27;20694;-55
2021/05/06 11:53:29;;;;;;;4.20;1.57;;;7.30;99.90;;;;;;5102753;28;20221;-59
2021/05/06 11:55:56;;;;;;;5.83;1.80;;;7.60;99.90;;;;;;5131268;27;20244;-58
2021/05/06 11:58:24;;;;;;;6.13;2.20;;;7.90;99.90;;;;;;5123305;27;20208;-57
2021/05/06 12:00:53;;;;;;;5.40;2.07;;;8.20;99.90;;;;;;5110434;27;20703;-57
2021/05/06 12:03:20;;;;;;;4.67;1.57;;;8.60;99.90;;;;;;5124169;27;20302;-54
2021/05/06 12:05:55;;;;;;;1.63;1.10;;;8.80;99.90;;;;;;5113175;27;20276;-57
2021/05/06 12:08:23;;;;;;;5.13;1.33;;;8.90;99.90;;;;;;5106068;27;20250;-56
2021/05/06 12:10:49;;;;;;;3.97;1.13;;;8.90;99.90;;;;;;5100479;28;20258;-58
2021/05/06 12:13:17;;;;;;;3.37;1.00;;;8.90;99.90;;;;;;5100771;27;20280;-57
2021/05/06 12:15:44;;;;;;;5.40;1.37;;;8.90;99.90;;;;;;5122740;27;20184;-59
2021/05/06 12:18:22;;;;;;;2.50;0.80;;;8.80;99.90;;;;;;5108662;27;20193;-51
2021/05/06 12:20:55;;;;;;;2.47;1.00;;;8.80;99.90;;;;;;5103005;27;20261;-60
2021/05/06 12:23:22;;;;;;;3.20;0.90;;;8.80;99.90;;;;;;5106657;27;20213;-55
2021/05/06 12:25:49;;;;;;;3.00;0.97;;;8.90;99.90;;;;;;5109139;27;20303;-58
2021/05/06 12:28:15;;;;;;;3.50;0.63;;;9.00;99.90;;;;;;5116279;27;20413;-55
2021/05/06 12:30:41;;;;;;;3.20;0.93;;;9.30;99.90;;;;;;5120992;27;20892;-58
2021/05/06 12:33:08;;;;;;;3.20;1.67;;;9.60;99.90;;;;;;5106942;27;20342;-57
2021/05/06 12:35:49;;;;;;;5.03;1.10;;;9.90;99.90;;;;;;5123713;27;20211;-54
2021/05/06 12:38:16;;;;;;;16.73;1.73;;;10.20;99.90;;;;;;5117048;28;20188;-52
2021/05/06 12:40:42;;;;;;;3.50;0.97;;;10.30;99.90;;;;;;5101442;27;20630;-53
2021/05/06 12:43:22;;;;;;;2.63;0.93;;;10.40;99.90;;;;;;5108249;27;20216;-53
2021/05/06 12:45:59;;;;;;;3.13;0.93;;;10.50;99.90;;;;;;5129962;27;20564;-56
2021/05/06 12:48:44;;;;;;;3.50;1.50;;;10.50;99.90;;;;;;5121979;27;20625;-52
2021/05/06 12:51:13;;;;;;;4.73;1.30;;;11.00;99.90;;;;;;5121401;27;20199;-55
2021/05/06 12:53:58;;;;;;;3.40;0.73;;;11.20;99.90;;;;;;5123000;27;20312;-56
2021/05/06 12:56:25;;;;;;;2.87;0.90;;;11.10;99.90;;;;;;5102980;28;20192;-55
2021/05/06 12:58:51;;;;;;;3.30;1.37;;;10.80;99.90;;;;;;5100325;27;20201;-58
2021/05/06 13:01:29;;;;;;;2.53;1.13;;;10.50;99.90;;;;;;5113344;27;20196;-54
2021/05/06 13:03:59;;;;;;;1.80;0.80;;;10.10;99.90;;;;;;5118297;27;20348;-56
2021/05/06 13:06:31;;;;;;;2.17;1.17;;;9.80;99.90;;;;;;5132179;27;20355;-53
2021/05/06 13:08:58;;;;;;;4.23;1.53;;;9.10;99.90;;;;;;5131003;27;20926;-53
2021/05/06 13:11:25;;;;;;;2.90;0.90;;;8.90;99.90;;;;;;5123954;27;20200;-49
2021/05/06 13:13:52;;;;;;;3.00;0.90;;;9.10;99.90;;;;;;5114091;27;20220;-57
2021/05/06 13:16:36;;;;;;;6.00;1.10;;;9.60;99.90;;;;;;5138569;27;20207;-49
2021/05/06 13:19:04;;;;;;;6.17;1.00;;;10.30;99.90;;;;;;5143543;27;20188;-49
2021/05/06 13:21:32;;;;;;;3.13;0.93;;;10.60;99.90;;;;;;5119332;27;20200;-54
2021/05/06 13:23:58;;;;;;;5.87;1.30;;;11.00;99.90;;;;;;5130838;27;20247;-54
2021/05/06 13:26:35;;;;;;;2.83;0.70;;;11.50;99.90;;;;;;5118250;27;20271;-52
2021/05/06 13:29:04;;;;;;;2.83;0.87;;;12.00;99.90;;;;;;5103128;27;20232;-51
2021/05/06 13:31:34;;;;;;;3.03;0.90;;;12.40;99.90;;;;;;5135018;27;20192;-55
2021/05/06 13:34:16;;;;;;;3.80;1.10;;;13.10;99.90;;;;;;5147281;27;20257;-51
2021/05/06 13:36:44;;;;;;;3.00;1.00;;;13.20;99.90;;;;;;5128229;27;20209;-53
2021/05/06 13:39:12;;;;;;;4.13;1.10;;;12.20;96.90;;;;;;5123558;27;20223;-52
2021/05/06 13:41:41;;;;;;;1.30;0.90;;;12.00;98.90;;;;;;5113831;27;20256;-50
2021/05/06 13:44:09;;;;;;;3.47;1.00;;;12.20;96.50;;;;;;5118936;27;20213;-50
2021/05/06 13:46:43;;;;;;;2.67;0.90;;;12.50;93.70;;;;;;5111646;27;20883;-54
2021/05/06 13:49:10;;;;;;;2.47;1.00;;;12.60;93.00;;;;;;5117248;27;20207;-52
2021/05/06 13:51:37;;;;;;;4.40;0.90;;;13.20;94.10;;;;;;5106346;27;20202;-51
2021/05/06 13:54:04;;;;;;;4.83;1.30;;;12.40;92.10;;;;;;5119431;27;20221;-51
2021/05/06 13:56:31;;;;;;;4.77;1.23;;;11.60;91.90;;;;;;5119548;27;20185;-56
2021/05/06 13:58:57;;;;;;;1.77;0.83;;;11.40;93.60;;;;;;5121834;27;20192;-51
2021/05/06 14:01:23;;;;;;;2.03;1.00;;;11.30;93.20;;;;;;5123534;27;20249;-57
2021/05/06 14:03:49;;;;;;;2.20;0.77;;;11.10;93.90;;;;;;5143791;27;20203;-50
2021/05/06 14:06:16;;;;;;;4.00;0.80;;;10.90;94.40;;;;;;5145660;27;20234;-57
2021/05/06 14:08:42;;;;;;;1.67;0.50;;;10.90;95.60;;;;;;5128244;27;20964;-52
2021/05/06 14:11:09;;;;;;;2.10;0.90;;;10.90;96.20;;;;;;5139352;27;20248;-51
2021/05/06 14:13:35;;;;;;;3.97;1.00;;;10.80;95.80;;;;;;5142513;27;20201;-54
2021/05/06 14:16:02;;;;;;;3.10;0.77;;;10.80;97.10;;;;;;5138668;27;20242;-52
2021/05/06 14:18:28;;;;;;;2.70;0.80;;;10.70;97.20;;;;;;5143014;27;20192;-56
2021/05/06 14:21:00;;;;;;;8.20;1.07;;;10.70;98.00;;;;;;5137030;27;20204;-51
2021/05/06 14:23:28;;;;;;;3.77;0.90;;;11.20;96.70;;;;;;5116521;27;20340;-56
2021/05/06 14:25:54;;;;;;;1.90;0.60;;;11.50;97.00;;;;;;5133826;27;20215;-54
2021/05/06 14:28:21;;;;;;;2.77;0.83;;;11.90;96.40;;;;;;5122380;27;20226;-56
2021/05/06 14:30:47;;;;;;;1.87;0.87;;;12.60;91.70;;;;;;5123513;27;20192;-55
2021/05/06 14:33:14;;;;;;;4.47;0.70;;;12.90;90.90;;;;;;5104625;27;20225;-56
2021/05/06 14:35:40;;;;;;;2.67;1.10;;;12.60;86.00;;;;;;5101354;28;20276;-54
2021/05/06 14:38:08;;;;;;;4.13;0.90;;;12.40;88.30;;;;;;5105023;28;20602;-51
2021/05/06 14:40:35;;;;;;;4.03;1.20;;;12.50;89.10;;;;;;5117654;27;20449;-53
2021/05/06 14:43:02;;;;;;;5.90;1.03;;;12.00;83.30;;;;;;5125309;27;20257;-55
2021/05/06 14:45:29;;;;;;;4.73;1.00;;;11.70;84.80;;;;;;5120675;27;20185;-56
2021/05/06 14:47:55;;;;;;;1.77;0.90;;;11.90;87.00;;;;;;5129818;27;20204;-49
2021/05/06 14:50:21;;;;;;;5.10;0.90;;;12.60;84.00;;;;;;5143726;27;20528;-57
2021/05/06 14:52:51;;;;;;;3.20;1.13;;;13.20;81.50;;;;;;5144147;27;20219;-53
2021/05/06 14:55:17;;;;;;;4.47;0.97;;;13.50;78.80;;;;;;5123514;27;20281;-56
2021/05/06 14:57:43;;;;;;;4.60;1.37;;;12.90;79.20;;;;;;5108266;27;20289;-56
2021/05/06 15:00:10;;;;;;;2.10;0.80;;;13.40;77.50;;;;;;5116473;27;20245;-56
2021/05/06 15:02:37;;;;;;;2.53;0.83;;;12.90;76.60;;;;;;5110341;27;22909;-56
2021/05/06 15:05:05;;;;;;;1.70;1.00;;;13.00;77.60;;;;;;5116708;27;20606;-52
2021/05/06 15:07:31;;;;;;;3.23;1.13;;;13.30;74.90;;;;;;5120417;27;20223;-55
2021/05/06 15:09:57;;;;;;;1.17;0.60;;;13.10;74.20;;;;;;5105877;27;20197;-53
2021/05/06 15:12:23;;;;;;;5.10;1.20;;;12.70;73.70;;;;;;5129730;27;20216;-56
2021/05/06 15:14:49;;;;;;;2.90;1.07;;;12.40;73.60;;;;;;5124710;27;20199;-55
2021/05/06 15:17:16;;;;;;;1.50;1.00;;;12.50;75.50;;;;;;5122545;27;20199;-56
2021/05/06 15:19:43;;;;;;;4.53;0.80;;;12.90;76.00;;;;;;5110496;27;20205;-53
2021/05/06 15:22:09;;;;;;;2.13;0.83;;;13.30;73.10;;;;;;5123155;27;20189;-56
2021/05/06 15:24:35;;;;;;;3.90;0.67;;;13.90;65.90;;;;;;5119658;27;20284;-53
2021/05/06 15:27:01;;;;;;;1.83;1.10;;;14.30;64.70;;;;;;5109054;27;20220;-55
2021/05/06 15:29:27;;;;;;;3.10;1.00;;;14.40;70.00;;;;;;5115376;27;20202;-52
2021/05/06 15:31:54;;;;;;;2.80;0.93;;;14.20;67.80;;;;;;5124246;27;20665;-50